ウィニペグ の空港の天気 - METARとTAF

ウィニペグ国際空港 ( CYWG / YWG ) - カナダ マニトバ州ウィニペグ
飛行場実況気象(Metar)
観測時間04/24 11:00 CDT (04/24 16:00 UTC)
風向・風速西北西 7m/s 瞬間風速10m/s
視程10km以上
天気現象
全天の8割程度の雲 雲底高度 3660m
気温16℃
湿度42%
気圧1004.1hPa
METARCYWG 241600Z 29014G20KT 15SM BKN120 16/03 A2964 RMK AC6 SLP041 DENSITY ALT 1500FT
過去の天気等 Google飛行場航空写真 Wunderground天気予報

過去48時間のMETAR

飛行場予報(TAF)
発表時間: 4/24 06:38 CDT (4/24 11:38 UTC)
予報対象時間: 24日7時 CDT ~ 25日7時 CDT
風向・風速西 5m/s
視程10km以上
全天の8割程度の雲 雲底高度 3660m
全天を覆う雲 雲底高度 6710m
24日11時 CDT から
風向・風速西北西 8m/s
視程10km以上
全天の4割程度の雲 雲底高度 3660m
24日15時 CDT から
風向・風速西北西 9m/s
視程10km以上
全天の8割程度の雲 雲底高度 3050m
24日15時 CDT ~ 24日19時 CDT に一時的に
視程10km以上
天気現象弱いしゅう雨
全天の8割程度の雲 雲底高度 2440m
25日3時 CDT から
風向・風速西北西 8m/s
視程10km以上
少しの雲 雲底高度 2440m
TAF CYWG 241138Z 2412/2512 27010KT P6SM BKN120 OVC220
FM241600 30015KT P6SM SCT120
FM242000 30018KT P6SM BKN100
TEMPO 2420/2424 P6SM -SHRA BKN080
FM250800 29015KT P6SM FEW080 RMK NXT FCST BY 241800Z